首页
METAR-TAF:

METAR-TAF

机场 :

温贝托·德尔加多机场

里斯本, 葡萄牙

纬度: 38-46N, 经度: 009-08W, 海拔: 114米

当前天气观测

该预报发布于33分钟前的09:00 UTC
风速8节,风向东转东北,在北转东北之间变化
温度 27°C
湿度 32%
气压 1016 hPa
能见度10公里或以上
1500米以下无云,无积雨云

METAR: LPPT 190900Z 06008KT 030V090 CAVOK 27/09 Q1016

时间: 10:33 (09:33 UTC)

预报

该预报发布于4小时和33分钟前的05:00 UTC
预报有效从19日的 06点(UTC)到 20日的 12点(UTC)
风速5节,风向
能见度10公里或以上
1500米以下无云,无积雨云
成为
从 19日的 06点(UTC)到 19日的 09点(UTC)
风速8节,风向东北
成为
从 19日的 11点(UTC)到 19日的 13点(UTC)
风速5节,风向多变
成为
从 19日的 13点(UTC)到 19日的 15点(UTC)
风速5节,风向西转西南
成为
从 19日的 16点(UTC)到 19日的 18点(UTC)
风速12节,风向西北
成为
从 19日的 22点(UTC)到 20日的 01点(UTC)
风速5节,风向西北
成为
从 20日的 05点(UTC)到 20日的 08点(UTC)
风速3节,风向多变

TAF: LPPT 190500Z 1906/2012 35005KT CAVOK BECMG 1906/1909 05008KT BECMG 1911/1913 VRB05KT BECMG 1913/1915 25005KT BECMG 1916/1918 32012KT BECMG 1922/2001 32005KT BECMG 2005/2008 VRB03KT

超过4000个机场的气象观测和天气预报(METAR&TAF报告)。

可查询的气象台以黄色和红色小点在地图上表示。

将鼠标移到小点上方,可查看气象台名称。

然后点击查看天气观测和预报。

如需切换地图:点击带黑十字的绿色按钮放大地图;点击带横线的绿色按钮缩小地图;或者点击绿色箭头查看邻近地区的地图。


METAR-TAF: